createdAt,value
2016-11-21T00:00:27.771Z,0
2016-11-21T00:01:36.439Z,0
2016-11-21T00:02:45.067Z,0
2016-11-21T00:03:53.681Z,0
2016-11-21T00:05:02.334Z,0
2016-11-21T00:06:10.976Z,0
2016-11-21T00:07:19.626Z,0
2016-11-21T00:08:28.220Z,0
2016-11-21T00:09:36.819Z,0
2016-11-21T00:10:45.416Z,0
2016-11-21T00:11:54.039Z,0
2016-11-21T00:13:02.652Z,0
2016-11-21T00:14:11.277Z,0
2016-11-21T00:15:19.899Z,0
2016-11-21T00:16:28.497Z,0
2016-11-21T00:17:37.136Z,0
2016-11-21T00:18:45.762Z,0
2016-11-21T00:19:54.383Z,0
2016-11-21T00:21:02.992Z,0
2016-11-21T00:22:11.625Z,0
2016-11-21T00:23:20.263Z,0
2016-11-21T00:24:28.909Z,0
2016-11-21T00:25:37.551Z,0
2016-11-21T00:26:46.187Z,0
2016-11-21T00:27:54.833Z,0
2016-11-21T00:29:03.449Z,0
2016-11-21T00:30:12.069Z,0
2016-11-21T00:31:20.671Z,0
2016-11-21T00:32:29.303Z,0
2016-11-21T00:33:37.935Z,0
2016-11-21T00:34:46.569Z,0
2016-11-21T00:35:55.174Z,0
2016-11-21T00:37:03.798Z,0
2016-11-21T00:38:12.416Z,0
2016-11-21T00:39:21.044Z,0
2016-11-21T00:40:29.635Z,0
2016-11-21T00:41:38.272Z,0
2016-11-21T00:42:46.908Z,0
2016-11-21T00:43:55.521Z,0
2016-11-21T00:45:04.147Z,0
2016-11-21T00:46:12.761Z,0
2016-11-21T00:47:21.427Z,0
2016-11-21T00:48:30.031Z,0
2016-11-21T00:49:38.670Z,0
2016-11-21T00:50:47.291Z,0
2016-11-21T00:51:55.919Z,0
2016-11-21T00:53:04.562Z,0
2016-11-21T00:54:13.211Z,0
2016-11-21T00:55:21.840Z,0
2016-11-21T00:56:30.471Z,0
2016-11-21T00:57:39.122Z,0
2016-11-21T00:58:47.739Z,0
2016-11-21T00:59:56.364Z,0
2016-11-21T01:01:04.968Z,0
2016-11-21T01:02:13.627Z,0
2016-11-21T01:03:22.247Z,0
2016-11-21T01:04:30.881Z,0
2016-11-21T01:05:39.506Z,0
2016-11-21T01:06:48.120Z,0
2016-11-21T01:07:56.747Z,0
2016-11-21T01:09:05.359Z,0
2016-11-21T01:10:13.992Z,0
2016-11-21T01:11:22.622Z,0
2016-11-21T01:12:31.252Z,0
2016-11-21T01:13:39.864Z,0
2016-11-21T01:14:48.489Z,0
2016-11-21T01:15:57.136Z,0
2016-11-21T01:17:05.765Z,0
2016-11-21T01:18:14.383Z,0
2016-11-21T01:19:23.024Z,0
2016-11-21T01:20:31.674Z,0
2016-11-21T01:21:40.311Z,0
2016-11-21T01:22:48.948Z,0
2016-11-21T01:23:57.567Z,0
2016-11-21T01:25:06.200Z,0
2016-11-21T01:26:14.837Z,0
2016-11-21T01:27:23.452Z,0
2016-11-21T01:28:32.093Z,0
2016-11-21T01:29:40.718Z,0
2016-11-21T01:30:49.347Z,0
2016-11-21T01:31:57.977Z,0
2016-11-21T01:33:06.598Z,0
2016-11-21T01:34:15.203Z,0
2016-11-21T01:35:23.829Z,0
2016-11-21T01:36:32.497Z,0
2016-11-21T01:37:41.116Z,0
2016-11-21T01:38:49.743Z,0
2016-11-21T01:39:58.380Z,0
2016-11-21T01:41:07.026Z,0
2016-11-21T01:42:15.700Z,0
2016-11-21T01:43:24.339Z,0
2016-11-21T01:44:32.967Z,0
2016-11-21T01:45:41.589Z,0
2016-11-21T01:46:50.219Z,0
2016-11-21T01:47:58.903Z,0
2016-11-21T01:49:07.537Z,0
2016-11-21T01:50:16.148Z,0
2016-11-21T01:51:24.769Z,0
2016-11-21T01:52:33.420Z,0
2016-11-21T01:53:42.059Z,0
2016-11-21T01:54:50.683Z,0
2016-11-21T01:55:59.335Z,0
2016-11-21T01:57:07.975Z,0
2016-11-21T01:58:16.613Z,0
2016-11-21T01:59:25.222Z,0
2016-11-21T02:00:33.836Z,0
2016-11-21T02:01:42.466Z,0
2016-11-21T02:02:51.108Z,0
2016-11-21T02:03:59.724Z,0
2016-11-21T02:05:08.374Z,0
2016-11-21T02:06:17.045Z,0
2016-11-21T02:07:25.658Z,0
2016-11-21T02:08:34.267Z,0
2016-11-21T02:09:42.927Z,0
2016-11-21T02:10:51.860Z,0
2016-11-21T02:12:00.480Z,0
2016-11-21T02:13:09.121Z,0
2016-11-21T02:14:17.735Z,0
2016-11-21T02:15:26.342Z,0
2016-11-21T02:16:34.965Z,0
2016-11-21T02:17:43.602Z,0
2016-11-21T02:18:52.212Z,0
2016-11-21T02:20:00.844Z,0
2016-11-21T02:21:09.475Z,0
2016-11-21T02:22:18.112Z,0
2016-11-21T02:23:26.740Z,0
2016-11-21T02:24:35.362Z,0
2016-11-21T02:25:44.009Z,0
2016-11-21T02:26:52.675Z,0
2016-11-21T02:28:01.296Z,0
2016-11-21T02:29:09.967Z,0
2016-11-21T02:30:18.617Z,0
2016-11-21T02:31:27.281Z,0
2016-11-21T02:32:35.923Z,0
2016-11-21T02:33:44.578Z,0
2016-11-21T02:34:53.203Z,0
2016-11-21T02:36:01.849Z,0
2016-11-21T02:37:10.482Z,0
2016-11-21T02:38:19.133Z,0
2016-11-21T02:39:27.791Z,0
2016-11-21T02:40:36.421Z,0
2016-11-21T02:41:45.042Z,0
2016-11-21T02:42:53.671Z,0
2016-11-21T02:44:02.312Z,0
2016-11-21T02:45:10.934Z,0
2016-11-21T02:46:19.565Z,0
2016-11-21T02:47:28.202Z,0
2016-11-21T02:48:36.844Z,0
2016-11-21T02:49:45.494Z,0
2016-11-21T02:50:54.118Z,0
2016-11-21T02:52:02.757Z,0
2016-11-21T02:53:11.383Z,0
2016-11-21T02:54:20.013Z,0
2016-11-21T02:55:28.629Z,0
2016-11-21T02:56:37.256Z,0
2016-11-21T02:57:45.887Z,0
2016-11-21T02:58:54.509Z,0
2016-11-21T03:00:03.113Z,0
2016-11-21T03:01:12.038Z,0
2016-11-21T03:02:20.676Z,0
2016-11-21T03:03:29.319Z,0
2016-11-21T03:04:37.973Z,0
2016-11-21T03:05:46.573Z,0
2016-11-21T03:06:55.195Z,0
2016-11-21T03:08:03.828Z,0
2016-11-21T03:09:12.474Z,0
2016-11-21T03:10:21.107Z,0
2016-11-21T03:11:29.726Z,0
2016-11-21T03:12:38.361Z,0
2016-11-21T03:13:47.293Z,0
2016-11-21T03:14:55.892Z,0
2016-11-21T03:16:04.550Z,0
2016-11-21T03:17:13.196Z,0
2016-11-21T03:18:21.830Z,0
2016-11-21T03:19:30.477Z,0
2016-11-21T03:20:39.097Z,0
2016-11-21T03:21:48.025Z,0
2016-11-21T03:22:56.637Z,0
2016-11-21T03:24:05.256Z,0
2016-11-21T03:25:13.894Z,0
2016-11-21T03:26:22.502Z,0
2016-11-21T03:27:31.100Z,0
2016-11-21T03:28:39.690Z,0
2016-11-21T03:29:48.633Z,0
2016-11-21T03:30:57.257Z,0
2016-11-21T03:32:05.896Z,0
2016-11-21T03:33:14.504Z,0
2016-11-21T03:34:23.146Z,0
2016-11-21T03:35:31.772Z,0
2016-11-21T03:36:40.415Z,0
2016-11-21T03:37:49.040Z,0
2016-11-21T03:38:57.657Z,0
2016-11-21T03:40:06.295Z,0
2016-11-21T03:41:14.914Z,0
2016-11-21T03:42:23.524Z,0
2016-11-21T03:43:32.144Z,0
2016-11-21T03:44:40.782Z,0
2016-11-21T03:45:49.424Z,0
2016-11-21T03:46:58.045Z,0
2016-11-21T03:48:06.659Z,0
2016-11-21T03:49:15.299Z,0
2016-11-21T03:50:23.922Z,0
2016-11-21T03:51:32.566Z,0
2016-11-21T03:52:41.188Z,0
2016-11-21T03:53:49.797Z,0
2016-11-21T03:54:58.444Z,0
2016-11-21T03:56:07.094Z,0
2016-11-21T03:57:15.748Z,0
2016-11-21T03:58:24.668Z,0
2016-11-21T03:59:33.307Z,0
2016-11-21T04:00:41.933Z,0
2016-11-21T04:01:50.554Z,0
2016-11-21T04:02:59.152Z,0
2016-11-21T04:04:07.798Z,0
2016-11-21T04:05:16.438Z,0
2016-11-21T04:06:25.088Z,0
2016-11-21T04:07:33.742Z,0
2016-11-21T04:08:42.359Z,0
2016-11-21T04:09:51.005Z,0
2016-11-21T04:10:59.624Z,0
2016-11-21T04:12:08.274Z,0
2016-11-21T04:13:16.894Z,0
2016-11-21T04:14:25.531Z,0
2016-11-21T04:15:34.161Z,0
2016-11-21T04:16:42.778Z,0
2016-11-21T04:17:51.399Z,0
2016-11-21T04:19:00.048Z,0
2016-11-21T04:20:08.691Z,0
2016-11-21T04:21:17.358Z,0
2016-11-21T04:22:25.988Z,0
2016-11-21T04:23:34.603Z,0
2016-11-21T04:24:43.225Z,0
2016-11-21T04:25:51.871Z,0
2016-11-21T04:27:00.521Z,0
2016-11-21T04:28:09.160Z,0
2016-11-21T04:29:17.818Z,0
2016-11-21T04:30:26.452Z,0
2016-11-21T04:31:35.069Z,0
2016-11-21T04:32:43.677Z,0
2016-11-21T04:33:52.316Z,0
2016-11-21T04:35:00.941Z,0
2016-11-21T04:36:09.578Z,0
2016-11-21T04:37:18.217Z,0
2016-11-21T04:38:26.820Z,0
2016-11-21T04:39:35.449Z,0
2016-11-21T04:40:44.046Z,0
2016-11-21T04:41:52.688Z,0
2016-11-21T04:43:01.316Z,0
2016-11-21T04:44:09.955Z,0
2016-11-21T04:45:18.576Z,0
2016-11-21T04:46:27.193Z,0
2016-11-21T04:47:35.844Z,0
2016-11-21T04:48:44.485Z,0
2016-11-21T04:49:53.137Z,0
2016-11-21T04:51:01.765Z,0
2016-11-21T04:52:10.387Z,0
2016-11-21T04:53:19.002Z,0
2016-11-21T04:54:27.623Z,0
2016-11-21T04:55:36.266Z,0
2016-11-21T04:56:44.868Z,0
2016-11-21T04:57:53.505Z,0
2016-11-21T04:59:02.105Z,0
2016-11-21T05:00:10.729Z,0
2016-11-21T05:01:19.329Z,0
2016-11-21T05:02:27.975Z,0
2016-11-21T05:03:36.623Z,0
2016-11-21T05:04:45.243Z,0
2016-11-21T05:05:53.881Z,0
2016-11-21T05:07:02.507Z,0
2016-11-21T05:08:11.151Z,0
2016-11-21T05:09:19.824Z,0
2016-11-21T05:10:28.465Z,0
2016-11-21T05:11:37.114Z,0
2016-11-21T05:12:45.758Z,0
2016-11-21T05:13:54.404Z,0
2016-11-21T05:15:03.028Z,0
2016-11-21T05:16:11.647Z,0
2016-11-21T05:17:20.267Z,0
2016-11-21T05:18:28.894Z,0
2016-11-21T05:19:37.518Z,0
2016-11-21T05:20:46.138Z,0
2016-11-21T05:21:54.784Z,0
2016-11-21T05:23:03.400Z,0
2016-11-21T05:24:12.022Z,0
2016-11-21T05:25:20.647Z,0
2016-11-21T05:26:29.270Z,0
2016-11-21T05:27:37.903Z,0
2016-11-21T05:28:46.537Z,0
2016-11-21T05:29:55.170Z,0
2016-11-21T05:31:03.777Z,0
2016-11-21T05:32:12.416Z,0
2016-11-21T05:33:21.092Z,0
2016-11-21T05:34:29.747Z,0
2016-11-21T05:35:38.333Z,0
2016-11-21T05:36:46.979Z,0
2016-11-21T05:37:55.605Z,0
2016-11-21T05:39:04.246Z,0
2016-11-21T05:40:12.871Z,0
2016-11-21T05:41:21.510Z,0
2016-11-21T05:42:30.135Z,0
2016-11-21T05:43:38.761Z,0
2016-11-21T05:44:47.377Z,0
2016-11-21T05:45:55.998Z,0
2016-11-21T05:47:04.615Z,0
2016-11-21T05:48:13.258Z,0
2016-11-21T05:49:21.841Z,0
2016-11-21T05:50:30.479Z,0
2016-11-21T05:51:39.095Z,0
2016-11-21T05:52:47.722Z,0
2016-11-21T05:53:56.325Z,0
2016-11-21T05:55:04.959Z,0
2016-11-21T05:56:13.591Z,0
2016-11-21T05:57:22.218Z,0
2016-11-21T05:58:30.832Z,0
2016-11-21T05:59:39.482Z,0
2016-11-21T06:00:48.103Z,0
2016-11-21T06:01:56.710Z,0
2016-11-21T06:03:05.315Z,0
2016-11-21T06:04:13.978Z,0
2016-11-21T06:05:22.639Z,0
2016-11-21T06:06:31.260Z,0
2016-11-21T06:07:39.876Z,0
2016-11-21T06:08:48.517Z,0
2016-11-21T06:09:57.145Z,0
2016-11-21T06:11:06.062Z,0
2016-11-21T06:12:14.686Z,0
2016-11-21T06:13:23.297Z,0
2016-11-21T06:14:31.902Z,0
2016-11-21T06:15:40.504Z,0
2016-11-21T06:16:49.147Z,0
2016-11-21T06:17:57.761Z,0
2016-11-21T06:19:06.407Z,0
2016-11-21T06:20:15.006Z,0
2016-11-21T06:21:23.609Z,0
2016-11-21T06:22:32.244Z,0
2016-11-21T06:23:40.874Z,0
2016-11-21T06:24:49.510Z,0
2016-11-21T06:25:58.158Z,0
2016-11-21T06:27:06.812Z,0
2016-11-21T06:28:15.455Z,0
2016-11-21T06:29:24.475Z,0
2016-11-21T06:30:33.071Z,5
2016-11-21T06:31:41.675Z,5
2016-11-21T06:32:50.318Z,5
2016-11-21T06:33:58.951Z,5
2016-11-21T06:35:07.581Z,10
2016-11-21T06:36:16.229Z,10
2016-11-21T06:37:24.849Z,10
2016-11-21T06:38:33.475Z,10
2016-11-21T06:39:42.116Z,15
2016-11-21T06:40:50.762Z,15
2016-11-21T06:41:59.383Z,15
2016-11-21T06:43:08.005Z,15
2016-11-21T06:44:16.653Z,15
2016-11-21T06:45:25.288Z,15
2016-11-21T06:46:33.917Z,20
2016-11-21T06:47:42.556Z,20
2016-11-21T06:48:51.752Z,20
2016-11-21T06:50:00.387Z,25
2016-11-21T06:51:09.028Z,25
2016-11-21T06:52:17.690Z,30
2016-11-21T06:53:26.319Z,35
2016-11-21T06:54:34.944Z,40
2016-11-21T06:55:43.564Z,40
2016-11-21T06:56:52.232Z,45
2016-11-21T06:58:00.850Z,45
2016-11-21T06:59:09.468Z,45
2016-11-21T07:00:18.076Z,45
2016-11-21T07:01:26.698Z,45
2016-11-21T07:02:35.330Z,45
2016-11-21T07:03:43.951Z,45
2016-11-21T07:04:52.547Z,50
2016-11-21T07:06:01.173Z,50
2016-11-21T07:07:09.797Z,55
2016-11-21T07:08:18.435Z,55
2016-11-21T07:09:27.067Z,60
2016-11-21T07:10:35.687Z,60
2016-11-21T07:11:44.312Z,60
2016-11-21T07:12:52.949Z,65
2016-11-21T07:14:01.591Z,65
2016-11-21T07:15:10.199Z,65
2016-11-21T07:16:18.823Z,65
2016-11-21T07:17:27.466Z,70
2016-11-21T07:18:36.076Z,70
2016-11-21T07:19:44.726Z,70
2016-11-21T07:20:53.654Z,75
2016-11-21T07:22:02.301Z,75
2016-11-21T07:23:10.948Z,75
2016-11-21T07:24:19.561Z,75
2016-11-21T07:25:28.181Z,75
2016-11-21T07:26:36.827Z,80
2016-11-21T07:27:45.444Z,80
2016-11-21T07:28:54.070Z,80
2016-11-21T07:30:02.675Z,80
2016-11-21T07:31:11.297Z,80
2016-11-21T07:32:19.933Z,80
2016-11-21T07:33:28.584Z,80
2016-11-21T07:34:37.221Z,85
2016-11-21T07:35:45.851Z,85
2016-11-21T07:36:54.471Z,90
2016-11-21T07:38:03.089Z,95
2016-11-21T07:39:11.721Z,95
2016-11-21T07:40:20.353Z,95
2016-11-21T07:41:28.977Z,95
2016-11-21T07:42:37.632Z,95
2016-11-21T07:43:46.308Z,95
2016-11-21T07:44:54.944Z,95
2016-11-21T07:46:03.567Z,95
2016-11-21T07:47:12.187Z,100
2016-11-21T07:48:20.837Z,100
2016-11-21T07:49:29.436Z,105
2016-11-21T07:50:38.096Z,110
2016-11-21T07:51:46.721Z,115
2016-11-21T07:52:55.345Z,120
2016-11-21T07:54:03.985Z,125
2016-11-21T07:55:12.643Z,125
2016-11-21T07:56:21.261Z,125
2016-11-21T07:57:29.881Z,125
2016-11-21T07:58:38.500Z,130
2016-11-21T07:59:47.435Z,130
2016-11-21T08:00:56.044Z,130
2016-11-21T08:02:04.682Z,130
2016-11-21T08:03:13.329Z,125
2016-11-21T08:04:21.958Z,125
2016-11-21T08:05:30.595Z,125
2016-11-21T08:06:39.225Z,130
2016-11-21T08:07:47.849Z,130
2016-11-21T08:08:56.438Z,130
2016-11-21T08:10:05.038Z,130
2016-11-21T08:11:13.635Z,135
2016-11-21T08:12:22.282Z,135
2016-11-21T08:13:30.926Z,135
2016-11-21T08:14:39.573Z,140
2016-11-21T08:15:48.222Z,145
2016-11-21T08:16:56.832Z,150
2016-11-21T08:18:05.460Z,150
2016-11-21T08:19:14.083Z,150
2016-11-21T08:20:22.691Z,155
2016-11-21T08:21:31.342Z,160
2016-11-21T08:22:40.023Z,160
2016-11-21T08:23:48.679Z,160
2016-11-21T08:24:57.333Z,165
2016-11-21T08:26:05.954Z,165
2016-11-21T08:27:14.580Z,165
2016-11-21T08:28:23.199Z,170
2016-11-21T08:29:31.846Z,170
2016-11-21T08:30:40.440Z,175
2016-11-21T08:31:49.082Z,180
2016-11-21T08:32:57.724Z,185
2016-11-21T08:34:06.329Z,185
2016-11-21T08:35:14.971Z,185
2016-11-21T08:36:23.600Z,190
2016-11-21T08:37:32.217Z,195
2016-11-21T08:38:40.863Z,195
2016-11-21T08:39:49.463Z,205
2016-11-21T08:40:58.101Z,215
2016-11-21T08:42:06.731Z,215
2016-11-21T08:43:15.650Z,220
2016-11-21T08:44:24.271Z,220
2016-11-21T08:45:32.895Z,215
2016-11-21T08:46:41.527Z,215
2016-11-21T08:47:50.148Z,210
2016-11-21T08:48:58.807Z,205
2016-11-21T08:50:07.440Z,200
2016-11-21T08:51:16.049Z,200
2016-11-21T08:52:24.695Z,200
2016-11-21T08:53:33.329Z,210
2016-11-21T08:54:41.979Z,220
2016-11-21T08:55:50.622Z,225
2016-11-21T08:56:59.226Z,225
2016-11-21T08:58:07.864Z,225
2016-11-21T08:59:16.510Z,220
2016-11-21T09:00:25.117Z,220
2016-11-21T09:01:33.727Z,210
2016-11-21T09:02:42.373Z,205
2016-11-21T09:03:51.002Z,205
2016-11-21T09:04:59.677Z,205
2016-11-21T09:06:08.317Z,215
2016-11-21T09:07:16.959Z,220
2016-11-21T09:08:25.580Z,235
2016-11-21T09:09:34.204Z,230
2016-11-21T09:10:42.849Z,235
2016-11-21T09:11:51.497Z,240
2016-11-21T09:13:00.138Z,240
2016-11-21T09:14:08.770Z,240
2016-11-21T09:15:17.405Z,240
2016-11-21T09:16:26.040Z,235
2016-11-21T09:17:34.683Z,230
2016-11-21T09:18:43.332Z,225
2016-11-21T09:19:51.965Z,220
2016-11-21T09:21:00.598Z,230
2016-11-21T09:22:09.219Z,215
2016-11-21T09:23:17.836Z,215
2016-11-21T09:24:26.463Z,215
2016-11-21T09:25:35.101Z,210
2016-11-21T09:26:43.726Z,205
2016-11-21T09:27:52.347Z,205
2016-11-21T09:29:01.296Z,205
2016-11-21T09:30:09.915Z,205
2016-11-21T09:31:18.537Z,205
2016-11-21T09:32:27.180Z,210
2016-11-21T09:33:35.793Z,210
2016-11-21T09:34:44.441Z,215
2016-11-21T09:35:53.090Z,215
2016-11-21T09:37:01.721Z,220
2016-11-21T09:38:10.354Z,225
2016-11-21T09:39:18.962Z,225
2016-11-21T09:40:27.604Z,225
2016-11-21T09:41:36.225Z,230
2016-11-21T09:42:44.865Z,230
2016-11-21T09:43:53.523Z,235
2016-11-21T09:45:02.190Z,235
2016-11-21T09:46:10.825Z,240
2016-11-21T09:47:19.457Z,240
2016-11-21T09:48:28.097Z,240
2016-11-21T09:49:36.725Z,240
2016-11-21T09:50:45.318Z,240
2016-11-21T09:51:53.943Z,245
2016-11-21T09:53:02.563Z,245
2016-11-21T09:54:11.185Z,250
2016-11-21T09:55:19.823Z,255
2016-11-21T09:56:28.452Z,255
2016-11-21T09:57:37.097Z,260
2016-11-21T09:58:45.745Z,265
2016-11-21T09:59:54.362Z,265
2016-11-21T10:01:03.000Z,270
2016-11-21T10:02:11.657Z,275
2016-11-21T10:03:20.291Z,280
2016-11-21T10:04:28.943Z,295
2016-11-21T10:05:37.569Z,290
2016-11-21T10:06:46.495Z,295
2016-11-21T10:07:55.139Z,300
2016-11-21T10:09:03.779Z,315
2016-11-21T10:10:12.408Z,305
2016-11-21T10:11:21.068Z,300
2016-11-21T10:12:29.710Z,285
2016-11-21T10:13:38.369Z,270
2016-11-21T10:14:47.002Z,265
2016-11-21T10:15:55.634Z,250
2016-11-21T10:17:04.258Z,250
2016-11-21T10:18:12.878Z,240
2016-11-21T10:19:21.499Z,235
2016-11-21T10:20:30.137Z,230
2016-11-21T10:21:38.784Z,220
2016-11-21T10:22:47.438Z,220
2016-11-21T10:23:56.083Z,220
2016-11-21T10:25:04.743Z,215
2016-11-21T10:26:13.373Z,215
2016-11-21T10:27:21.995Z,215
2016-11-21T10:28:30.617Z,210
2016-11-21T10:29:51.981Z,210
2016-11-21T10:31:00.608Z,205
2016-11-21T10:32:09.251Z,205
2016-11-21T10:33:17.877Z,205
2016-11-21T10:34:26.516Z,205
2016-11-21T10:35:35.150Z,210
2016-11-21T10:36:43.813Z,210
2016-11-21T10:37:52.464Z,210
2016-11-21T10:39:01.088Z,215
2016-11-21T10:40:09.753Z,210
2016-11-21T10:41:18.412Z,195
2016-11-21T10:42:27.049Z,195
2016-11-21T10:43:35.672Z,200
2016-11-21T10:44:44.617Z,205
2016-11-21T10:45:53.239Z,215
2016-11-21T10:47:01.900Z,215
2016-11-21T10:48:10.557Z,215
2016-11-21T10:49:19.203Z,205
2016-11-21T10:50:27.821Z,210
2016-11-21T10:51:36.456Z,205
2016-11-21T10:52:45.111Z,210
2016-11-21T10:53:53.732Z,215
2016-11-21T10:55:02.370Z,215
2016-11-21T10:56:10.998Z,215
2016-11-21T10:57:19.944Z,225
2016-11-21T10:58:28.620Z,225
2016-11-21T10:59:37.571Z,230
2016-11-21T11:00:46.230Z,230
2016-11-21T11:01:54.858Z,230
2016-11-21T11:03:03.507Z,225
2016-11-21T11:04:12.147Z,225
2016-11-21T11:05:20.792Z,215
2016-11-21T11:06:29.427Z,220
2016-11-21T11:07:38.071Z,205
2016-11-21T11:08:46.706Z,200
2016-11-21T11:09:55.344Z,210
2016-11-21T11:11:04.298Z,215
2016-11-21T11:12:12.945Z,215
2016-11-21T11:13:21.591Z,215
2016-11-21T11:14:30.244Z,215
2016-11-21T11:15:38.871Z,215
2016-11-21T11:16:47.499Z,215
2016-11-21T11:17:56.167Z,215
2016-11-21T11:19:04.817Z,210
2016-11-21T11:20:13.437Z,215
2016-11-21T11:21:22.095Z,215
2016-11-21T11:22:30.734Z,210
2016-11-21T11:23:39.356Z,215
2016-11-21T11:24:47.981Z,210
2016-11-21T11:25:56.640Z,220
2016-11-21T11:27:05.266Z,230
2016-11-21T11:28:13.903Z,240
2016-11-21T11:29:22.536Z,255
2016-11-21T11:30:31.159Z,270
2016-11-21T11:31:39.778Z,280
2016-11-21T11:32:48.425Z,280
2016-11-21T11:33:57.042Z,275
2016-11-21T11:35:05.691Z,270
2016-11-21T11:36:14.330Z,275
2016-11-21T11:37:22.984Z,270
2016-11-21T11:38:31.581Z,275
2016-11-21T11:39:40.198Z,280
2016-11-21T11:40:48.821Z,285
2016-11-21T11:41:57.466Z,290
2016-11-21T11:43:06.118Z,295
2016-11-21T11:44:14.801Z,290
2016-11-21T11:45:23.460Z,300
2016-11-21T11:46:32.113Z,305
2016-11-21T11:47:40.778Z,305
2016-11-21T11:48:49.418Z,290
2016-11-21T11:49:58.082Z,290
2016-11-21T11:51:06.713Z,290
2016-11-21T11:52:15.379Z,280
2016-11-21T11:53:24.050Z,260
2016-11-21T11:54:32.755Z,250
2016-11-21T11:55:41.395Z,235
2016-11-21T11:56:50.065Z,220
2016-11-21T11:57:59.035Z,205
2016-11-21T11:59:07.689Z,200
2016-11-21T12:00:16.336Z,190
2016-11-21T12:01:25.031Z,185
2016-11-21T12:02:33.694Z,185
2016-11-21T12:03:42.390Z,185
2016-11-21T12:04:51.045Z,185
2016-11-21T12:05:59.700Z,175
2016-11-21T12:07:08.404Z,175
2016-11-21T12:08:17.083Z,165
2016-11-21T12:09:25.754Z,165
2016-11-21T12:10:34.403Z,180
2016-11-21T12:11:43.063Z,185
2016-11-21T12:12:51.711Z,185
2016-11-21T12:14:00.357Z,185
2016-11-21T12:15:09.010Z,190
2016-11-21T12:16:17.687Z,185
2016-11-21T12:17:26.345Z,190
2016-11-21T12:18:34.965Z,195
2016-11-21T12:19:43.621Z,205
2016-11-21T12:20:52.257Z,210
2016-11-21T12:22:00.893Z,215
2016-11-21T12:23:09.583Z,220
2016-11-21T12:24:18.265Z,215
2016-11-21T12:25:26.893Z,215
2016-11-21T12:26:35.563Z,215
2016-11-21T12:27:44.201Z,210
2016-11-21T12:28:52.888Z,210
2016-11-21T12:30:01.605Z,210
2016-11-21T12:31:10.255Z,200
2016-11-21T12:32:18.938Z,200
2016-11-21T12:33:27.617Z,200
2016-11-21T12:34:36.262Z,200
2016-11-21T12:35:44.933Z,200
2016-11-21T12:36:53.530Z,200
2016-11-21T12:38:02.187Z,195
2016-11-21T12:39:10.879Z,195
2016-11-21T12:40:19.524Z,195
2016-11-21T12:41:28.180Z,195
2016-11-21T12:42:36.844Z,200
2016-11-21T12:43:45.491Z,195
2016-11-21T12:44:54.176Z,190
2016-11-21T12:46:02.830Z,195
2016-11-21T12:47:11.501Z,200
2016-11-21T12:48:20.183Z,195
2016-11-21T12:49:28.821Z,195
2016-11-21T12:50:37.470Z,195
2016-11-21T12:51:46.161Z,195
2016-11-21T12:52:54.835Z,190
2016-11-21T12:54:03.478Z,180
2016-11-21T12:55:12.167Z,180
2016-11-21T12:56:20.852Z,175
2016-11-21T12:57:29.542Z,175
2016-11-21T12:58:38.212Z,180
2016-11-21T12:59:46.880Z,180
2016-11-21T13:00:55.530Z,175
2016-11-21T13:02:04.156Z,175
2016-11-21T13:03:12.839Z,175
2016-11-21T13:04:21.518Z,165
2016-11-21T13:05:30.189Z,160
2016-11-21T13:06:38.847Z,160
2016-11-21T13:07:47.531Z,160
2016-11-21T13:08:56.222Z,155
2016-11-21T13:10:04.900Z,145
2016-11-21T13:11:13.564Z,140
2016-11-21T13:12:22.234Z,135
2016-11-21T13:13:30.880Z,135
2016-11-21T13:14:39.525Z,135
2016-11-21T13:15:48.168Z,125
2016-11-21T13:16:56.876Z,125
2016-11-21T13:18:05.533Z,120
2016-11-21T13:19:14.202Z,120
2016-11-21T13:20:22.864Z,115
2016-11-21T13:21:31.508Z,115
2016-11-21T13:22:40.149Z,110
2016-11-21T13:23:48.794Z,110
2016-11-21T13:24:57.440Z,110
2016-11-21T13:26:06.105Z,110
2016-11-21T13:27:15.102Z,110
2016-11-21T13:28:23.737Z,105
2016-11-21T13:29:32.408Z,110
2016-11-21T13:30:41.079Z,110
2016-11-21T13:31:49.750Z,110
2016-11-21T13:32:58.396Z,110
2016-11-21T13:34:07.078Z,110
2016-11-21T13:35:15.738Z,110
2016-11-21T13:36:24.357Z,110
2016-11-21T13:37:33.006Z,110
2016-11-21T13:38:41.671Z,115
2016-11-21T13:39:50.349Z,115
2016-11-21T13:40:58.989Z,115
2016-11-21T13:42:07.657Z,115
2016-11-21T13:43:16.336Z,115
2016-11-21T13:44:25.008Z,115
2016-11-21T13:45:33.654Z,115
2016-11-21T13:46:42.319Z,115
2016-11-21T13:47:51.012Z,110
2016-11-21T13:48:59.691Z,110
2016-11-21T13:50:08.344Z,110
2016-11-21T13:51:17.004Z,110
2016-11-21T13:52:25.651Z,105
2016-11-21T13:53:34.296Z,105
2016-11-21T13:54:42.939Z,105
2016-11-21T13:55:51.594Z,105
2016-11-21T13:57:00.266Z,100
2016-11-21T13:58:08.937Z,100
2016-11-21T13:59:17.582Z,100
2016-11-21T14:00:26.263Z,100
2016-11-21T14:01:34.941Z,100
2016-11-21T14:02:43.596Z,95
2016-11-21T14:03:52.239Z,95
2016-11-21T14:05:00.890Z,95
2016-11-21T14:06:09.559Z,95
2016-11-21T14:07:18.231Z,90
2016-11-21T14:08:26.918Z,90
2016-11-21T14:09:35.566Z,85
2016-11-21T14:10:44.252Z,80
2016-11-21T14:11:52.908Z,75
2016-11-21T14:13:01.544Z,75
2016-11-21T14:14:10.213Z,70
2016-11-21T14:15:18.902Z,70
2016-11-21T14:16:27.579Z,70
2016-11-21T14:17:36.236Z,65
2016-11-21T14:18:44.860Z,65
2016-11-21T14:19:53.491Z,65
2016-11-21T14:21:02.175Z,60
2016-11-21T14:22:10.846Z,60
2016-11-21T14:23:19.478Z,55
2016-11-21T14:24:28.117Z,55
2016-11-21T14:25:36.762Z,55
2016-11-21T14:26:45.424Z,50
2016-11-21T14:27:54.058Z,50
2016-11-21T14:29:02.662Z,45
2016-11-21T14:30:11.344Z,45
2016-11-21T14:31:19.996Z,45
2016-11-21T14:32:28.619Z,40
2016-11-21T14:33:37.260Z,40
2016-11-21T14:34:45.904Z,40
2016-11-21T14:35:54.558Z,35
2016-11-21T14:37:03.221Z,35
2016-11-21T14:38:11.893Z,35
2016-11-21T14:39:20.555Z,30
2016-11-21T14:40:29.217Z,30
2016-11-21T14:41:37.882Z,30
2016-11-21T14:42:46.526Z,30
2016-11-21T14:43:55.175Z,25
2016-11-21T14:45:03.827Z,25
2016-11-21T14:46:12.477Z,25
2016-11-21T14:47:21.144Z,25
2016-11-21T14:48:29.815Z,20
2016-11-21T14:49:38.469Z,20
2016-11-21T14:50:47.130Z,20
2016-11-21T14:51:55.771Z,15
2016-11-21T14:53:04.441Z,15
2016-11-21T14:54:13.104Z,15
2016-11-21T14:55:21.778Z,15
2016-11-21T14:56:30.429Z,10
2016-11-21T14:57:39.095Z,10
2016-11-21T14:58:47.723Z,10
2016-11-21T14:59:56.369Z,10
2016-11-21T15:01:05.023Z,10
2016-11-21T15:02:13.685Z,10
2016-11-21T15:03:22.342Z,5
2016-11-21T15:04:30.997Z,5
2016-11-21T15:05:39.631Z,5
2016-11-21T15:06:48.294Z,5
2016-11-21T15:07:56.929Z,5
2016-11-21T15:09:05.588Z,5
2016-11-21T15:10:14.201Z,5
2016-11-21T15:11:22.854Z,5
2016-11-21T15:12:31.505Z,0
2016-11-21T15:13:40.141Z,0
2016-11-21T15:14:48.787Z,0
2016-11-21T15:15:57.455Z,0
2016-11-21T15:17:06.085Z,0
2016-11-21T15:18:14.731Z,0
2016-11-21T15:19:23.406Z,0
2016-11-21T15:20:32.056Z,0
2016-11-21T15:21:40.733Z,0
2016-11-21T15:22:49.399Z,0
2016-11-21T15:23:58.095Z,0
2016-11-21T15:25:07.115Z,0
2016-11-21T15:26:15.758Z,0
2016-11-21T15:27:24.434Z,0
2016-11-21T15:28:33.095Z,0
2016-11-21T15:29:41.741Z,0
2016-11-21T15:30:50.376Z,0
2016-11-21T15:31:59.060Z,0
2016-11-21T15:33:07.732Z,0
2016-11-21T15:34:16.406Z,0
2016-11-21T15:35:25.056Z,0
2016-11-21T15:36:33.719Z,0
2016-11-21T15:37:42.373Z,0
2016-11-21T15:38:51.045Z,0
2016-11-21T15:39:59.710Z,0
2016-11-21T15:41:08.353Z,0
2016-11-21T15:42:17.002Z,0
2016-11-21T15:43:25.645Z,0
2016-11-21T15:44:34.325Z,0
2016-11-21T15:45:42.976Z,0
2016-11-21T15:46:51.629Z,0
2016-11-21T15:48:00.274Z,0
2016-11-21T15:49:08.923Z,0
2016-11-21T15:50:17.612Z,0
2016-11-21T15:51:26.277Z,0
2016-11-21T15:52:34.948Z,0
2016-11-21T15:53:43.569Z,0
2016-11-21T15:54:52.232Z,0
2016-11-21T15:56:00.867Z,0
2016-11-21T15:57:09.549Z,0
2016-11-21T15:58:18.204Z,0
2016-11-21T15:59:26.840Z,0
2016-11-21T16:00:35.476Z,0
2016-11-21T16:01:44.159Z,0
2016-11-21T16:02:52.812Z,0
2016-11-21T16:04:01.475Z,0
2016-11-21T16:05:10.129Z,0
2016-11-21T16:06:18.794Z,0
2016-11-21T16:07:27.421Z,0
2016-11-21T16:08:36.077Z,0
2016-11-21T16:09:44.755Z,0
2016-11-21T16:10:53.447Z,0
2016-11-21T16:12:02.082Z,0
2016-11-21T16:13:10.749Z,0
2016-11-21T16:14:19.408Z,0
2016-11-21T16:15:28.061Z,0
2016-11-21T16:16:36.712Z,0
2016-11-21T16:17:45.335Z,0
2016-11-21T16:18:54.008Z,0
2016-11-21T16:20:02.676Z,0
2016-11-21T16:21:11.368Z,0
2016-11-21T16:22:20.021Z,0